パラオ の空港の天気 - METARとTAF

パラオ国際空港 ( PTRO / ROR ) - パラオ アイライ州
飛行場実況気象(Metar)
観測時間04/22 01:50 PWT (04/21 16:50 UTC)
風向・風速東北東 3m/s
視程10km以上
天気現象
全天の4割程度の雲 雲底高度 490m
全天の8割程度の雲 雲底高度 3660m
全天の8割程度の雲 雲底高度 9140m
気温26℃
湿度84%
気圧1010hPa
METARPTRO 211650Z 07005KT 15SM SCT016 BKN120 BKN300 26/23 A2982
過去の天気等 Google飛行場航空写真 Wunderground天気予報

過去48時間のMETAR

飛行場予報(TAF)
発表時間: 4/21 20:29 PWT (4/21 11:29 UTC)
予報対象時間: 21日21時 PWT ~ 22日21時 PWT
風向・風速東北東 6m/s
視程10km以上
全天の4割程度の雲 雲底高度 490m
全天の4割程度の雲 雲底高度 1220m
PTRO 211129Z 2112/2212 06011KT P6SM SCT016 SCT040